Time;durP1;ratioP1;P1;durP2;ratioP2;P2;SDS_P1;SDS_P2;PMS_P1;PMS_P2;Temp;Humidity;BMP_temperature;BMP_pressure;BME280_temperature;BME280_humidity;BME280_pressure;Samples;Min_cycle;Max_cycle;Signal;HPM_P1;HPM_P2
2022/08/16 00:01:19;;;;;;;14.68;9.50;;;21.50;99.90;;;;;;5150428;27;20034;-81
2022/08/16 00:04:03;;;;;;;12.65;10.00;;;21.40;99.90;;;;;;5149886;27;20038;-81
2022/08/16 00:06:48;;;;;;;19.20;9.27;;;;;;;;;;5149701;27;20046;-81
2022/08/16 00:09:32;;;;;;;12.45;8.73;;;21.40;99.90;;;;;;5152597;27;20103;-81
2022/08/16 00:12:17;;;;;;;10.25;8.68;;;21.40;99.90;;;;;;5150381;27;20444;-81
2022/08/16 00:15:06;;;;;;;12.35;8.48;;;21.40;99.90;;;;;;5149609;27;20118;-81
2022/08/16 00:17:50;;;;;;;12.98;8.52;;;21.40;99.90;;;;;;5141721;27;20034;-82
2022/08/16 00:20:37;;;;;;;12.77;9.15;;;21.40;99.90;;;;;;5158416;27;20099;-82
2022/08/16 00:23:21;;;;;;;11.55;9.15;;;21.40;99.90;;;;;;5108324;27;20042;-81
2022/08/16 00:26:05;;;;;;;12.43;8.80;;;21.40;99.90;;;;;;5135587;27;20088;-81
2022/08/16 00:28:49;;;;;;;10.05;8.32;;;21.30;99.90;;;;;;5135508;27;20087;-82
2022/08/16 00:31:34;;;;;;;12.38;10.30;;;21.30;99.90;;;;;;5130662;27;20035;-81
2022/08/16 00:34:20;;;;;;;14.05;9.07;;;21.40;99.90;;;;;;5135221;27;20046;-81
2022/08/16 00:37:04;;;;;;;14.25;10.55;;;21.30;99.90;;;;;;5123655;27;20038;-81
2022/08/16 00:39:48;;;;;;;14.63;9.48;;;21.30;99.90;;;;;;5135318;27;20504;-82
2022/08/16 00:42:33;;;;;;;11.50;9.88;;;21.30;99.90;;;;;;5135649;27;20038;-82
2022/08/16 00:45:42;;;;;;;17.50;10.90;;;21.30;99.90;;;;;;5135825;27;20521;-82
2022/08/16 00:48:29;;;;;;;13.15;10.50;;;21.30;99.90;;;;;;5120844;27;20035;-81
2022/08/16 00:51:15;;;;;;;16.83;11.27;;;21.30;99.90;;;;;;5135496;27;20531;-81
2022/08/16 00:53:59;;;;;;;15.18;11.45;;;21.30;99.90;;;;;;5135106;27;20132;-81
2022/08/16 00:56:45;;;;;;;16.48;12.32;;;21.30;99.90;;;;;;5149164;27;20446;-82
2022/08/16 00:59:34;;;;;;;16.20;12.05;;;21.30;99.90;;;;;;5132877;27;20547;-81
2022/08/16 01:02:19;;;;;;;14.00;12.50;;;21.30;99.90;;;;;;5126954;27;20084;-81
2022/08/16 01:05:04;;;;;;;14.20;12.80;;;21.20;99.90;;;;;;5119283;27;20046;-82
2022/08/16 01:07:48;;;;;;;14.63;13.15;;;21.20;99.90;;;;;;5135094;27;20038;-82
2022/08/16 01:10:33;;;;;;;13.77;12.35;;;21.20;99.90;;;;;;5119297;27;20070;-82
2022/08/16 01:13:27;;;;;;;16.23;14.00;;;21.20;99.90;;;;;;5133371;27;20066;-82
2022/08/16 01:16:26;;;;;;;17.05;15.30;;;21.10;99.90;;;;;;5134749;27;20107;-82
2022/08/16 01:19:25;;;;;;;20.10;15.13;;;21.00;99.90;;;;;;5134476;27;20050;-82
2022/08/16 01:22:26;;;;;;;16.15;12.65;;;20.90;99.90;;;;;;5134487;27;20033;-82
2022/08/16 01:25:18;;;;;;;15.18;13.55;;;21.00;99.90;;;;;;5123467;27;20033;-81
2022/08/16 01:28:08;;;;;;;17.65;14.18;;;20.90;99.90;;;;;;5134279;27;20027;-82
2022/08/16 01:30:56;;;;;;;17.92;13.98;;;20.90;99.90;;;;;;5134562;27;20506;-86
2022/08/16 01:33:40;;;;;;;16.40;14.13;;;21.40;99.90;;;;;;5133702;27;20092;-82
2022/08/16 01:36:24;;;;;;;17.90;15.75;;;21.00;99.90;;;;;;5134127;27;20128;-82
2022/08/16 01:39:12;;;;;;;17.00;14.85;;;20.80;99.90;;;;;;5118570;27;20051;-82
2022/08/16 01:41:56;;;;;;;18.85;16.08;;;20.80;99.90;;;;;;5133553;27;20084;-85
2022/08/16 01:44:41;;;;;;;19.20;15.13;;;20.80;99.90;;;;;;5134165;27;20038;-82
2022/08/16 01:47:26;;;;;;;18.02;15.20;;;20.70;99.90;;;;;;5134475;27;20080;-81
2022/08/16 01:50:11;;;;;;;16.55;14.85;;;20.70;99.90;;;;;;5133693;27;20572;-82
2022/08/16 01:52:55;;;;;;;21.00;14.80;;;20.70;99.90;;;;;;5134147;27;20090;-83
2022/08/16 01:55:40;;;;;;;17.27;15.48;;;20.70;99.90;;;;;;5134343;27;20030;-83
2022/08/16 01:58:25;;;;;;;16.17;14.60;;;20.60;99.90;;;;;;5119081;27;20075;-82
2022/08/16 02:01:10;;;;;;;15.65;13.93;;;20.60;99.90;;;;;;5133425;27;20042;-82
2022/08/16 02:03:56;;;;;;;15.20;13.57;;;20.60;99.90;;;;;;5134038;27;20398;-83
2022/08/16 02:06:41;;;;;;;19.02;14.10;;;20.60;99.90;;;;;;5134177;27;20445;-83
2022/08/16 02:09:25;;;;;;;16.58;13.23;;;20.60;99.90;;;;;;5118882;27;20525;-83
2022/08/16 02:12:11;;;;;;;16.77;14.00;;;20.50;99.90;;;;;;5145311;27;20164;-83
2022/08/16 02:14:56;;;;;;;16.17;14.50;;;20.40;99.90;;;;;;5119682;27;20030;-82
2022/08/16 02:17:41;;;;;;;16.48;14.48;;;20.30;99.90;;;;;;5134015;27;20115;-83
2022/08/16 02:20:28;;;;;;;16.92;14.77;;;20.40;99.90;;;;;;5133557;27;20037;-82
2022/08/16 02:23:13;;;;;;;17.85;15.90;;;20.40;99.90;;;;;;5115601;27;20046;-83
2022/08/16 02:25:58;;;;;;;17.45;15.38;;;20.30;99.90;;;;;;5111338;27;20069;-81
2022/08/16 02:28:42;;;;;;;18.40;15.60;;;20.30;99.90;;;;;;5117803;27;20034;-82
2022/08/16 02:31:26;;;;;;;18.35;16.38;;;20.40;99.90;;;;;;5133137;27;20095;-82
2022/08/16 02:34:11;;;;;;;18.08;16.05;;;20.30;99.90;;;;;;5133093;27;20444;-82
2022/08/16 02:36:55;;;;;;;19.77;15.98;;;20.30;99.90;;;;;;5133074;27;20050;-82
2022/08/16 02:39:39;;;;;;;18.58;15.00;;;20.30;99.90;;;;;;5133266;27;20037;-83
2022/08/16 02:42:24;;;;;;;17.40;15.32;;;;;;;;;;5132885;27;20709;-82
2022/08/16 02:45:09;;;;;;;17.83;14.88;;;20.40;99.90;;;;;;5118101;27;20058;-82
2022/08/16 02:47:54;;;;;;;16.13;14.40;;;20.50;99.90;;;;;;5133177;27;20111;-81
2022/08/16 02:50:38;;;;;;;17.27;14.57;;;20.40;99.90;;;;;;5133212;27;20513;-81
2022/08/16 02:53:22;;;;;;;16.90;15.20;;;20.40;99.90;;;;;;5127356;27;20175;-82
2022/08/16 02:56:09;;;;;;;19.20;14.65;;;20.40;99.90;;;;;;5119500;27;20050;-87
2022/08/16 02:58:54;;;;;;;16.67;14.98;;;20.40;99.90;;;;;;5133203;27;20060;-82
2022/08/16 03:01:38;;;;;;;17.13;14.73;;;20.20;99.90;;;;;;5133172;27;20089;-82
2022/08/16 03:04:22;;;;;;;17.45;15.05;;;20.20;99.90;;;;;;5132639;27;20034;-82
2022/08/16 03:07:07;;;;;;;16.65;14.77;;;20.40;99.90;;;;;;5117212;27;20505;-85
2022/08/16 03:09:52;;;;;;;17.98;15.77;;;20.30;99.90;;;;;;5132971;27;20066;-82
2022/08/16 03:12:36;;;;;;;17.42;14.65;;;20.30;99.90;;;;;;5132325;27;20047;-82
2022/08/16 03:15:20;;;;;;;17.33;14.68;;;20.60;99.90;;;;;;5132319;27;20034;-82
2022/08/16 03:18:05;;;;;;;17.63;15.43;;;20.20;99.90;;;;;;5133028;27;20092;-82
2022/08/16 03:20:49;;;;;;;17.02;15.30;;;20.20;99.90;;;;;;5137446;27;20034;-82
2022/08/16 03:23:33;;;;;;;21.95;14.98;;;20.10;99.90;;;;;;5140499;27;20138;-82
2022/08/16 03:26:17;;;;;;;18.90;15.57;;;20.10;99.90;;;;;;5115766;27;20537;-82
2022/08/16 03:29:01;;;;;;;19.88;15.00;;;20.00;99.90;;;;;;5098289;28;20050;-82
2022/08/16 03:31:45;;;;;;;19.75;16.17;;;19.90;99.90;;;;;;5143406;27;20046;-82
2022/08/16 03:34:32;;;;;;;21.92;16.73;;;19.90;99.90;;;;;;5118704;27;20054;-82
2022/08/16 03:37:16;;;;;;;16.30;14.60;;;19.90;99.90;;;;;;5132511;28;20035;-82
2022/08/16 03:40:00;;;;;;;17.52;14.68;;;19.70;99.90;;;;;;5133210;28;20046;-83
2022/08/16 03:42:45;;;;;;;17.58;15.60;;;19.50;99.90;;;;;;5130629;27;20042;-83
2022/08/16 03:45:29;;;;;;;17.67;15.13;;;19.60;99.90;;;;;;5116746;28;20069;-81
2022/08/16 03:48:13;;;;;;;18.67;16.42;;;19.60;99.90;;;;;;5105104;27;20050;-86
2022/08/16 03:50:59;;;;;;;18.73;16.15;;;19.50;99.90;;;;;;5132666;27;20154;-82
2022/08/16 03:53:44;;;;;;;17.67;15.60;;;19.50;99.90;;;;;;5132974;28;20042;-82
2022/08/16 03:56:28;;;;;;;19.67;16.33;;;19.50;99.90;;;;;;5134498;27;20042;-82
2022/08/16 03:59:13;;;;;;;17.77;15.32;;;19.40;99.90;;;;;;5136790;27;20121;-82
2022/08/16 04:01:59;;;;;;;20.98;15.60;;;19.30;99.90;;;;;;5135927;27;20084;-82
2022/08/16 04:04:44;;;;;;;18.17;16.38;;;19.20;99.90;;;;;;5135925;27;20042;-81
2022/08/16 04:07:28;;;;;;;21.33;15.75;;;19.30;99.90;;;;;;5111136;27;20091;-82
2022/08/16 04:10:13;;;;;;;22.35;16.27;;;19.30;99.90;;;;;;5135900;27;20058;-82
2022/08/16 04:12:57;;;;;;;19.92;16.73;;;19.10;99.90;;;;;;5115906;28;20122;-82
2022/08/16 04:15:41;;;;;;;18.50;16.55;;;19.20;99.90;;;;;;5101783;27;20107;-82
2022/08/16 04:18:26;;;;;;;18.85;16.13;;;19.20;99.90;;;;;;5120628;27;20045;-82
2022/08/16 04:21:10;;;;;;;18.63;16.70;;;19.20;99.90;;;;;;5106308;27;20042;-83
2022/08/16 04:23:54;;;;;;;18.50;16.50;;;19.20;99.90;;;;;;5107674;28;20088;-82
2022/08/16 04:26:38;;;;;;;19.05;16.42;;;19.20;99.90;;;;;;5123135;27;20547;-82
2022/08/16 04:29:23;;;;;;;21.08;16.63;;;19.10;99.90;;;;;;5135326;27;20410;-83
2022/08/16 04:32:07;;;;;;;20.40;17.73;;;19.10;99.90;;;;;;5150436;27;20038;-82
2022/08/16 04:34:52;;;;;;;22.38;18.05;;;19.10;99.90;;;;;;5131281;27;20080;-82
2022/08/16 04:37:37;;;;;;;21.38;17.92;;;19.00;99.90;;;;;;5119568;27;20031;-82
2022/08/16 04:40:23;;;;;;;20.13;17.80;;;19.00;99.90;;;;;;5105693;27;20401;-86
2022/08/16 04:43:07;;;;;;;19.75;17.60;;;19.00;99.90;;;;;;5109764;27;20042;-82
2022/08/16 04:45:51;;;;;;;23.58;18.83;;;18.90;99.90;;;;;;5135856;27;20038;-82
2022/08/16 04:48:35;;;;;;;21.42;18.92;;;18.90;99.90;;;;;;5135452;27;20038;-82
2022/08/16 04:51:19;;;;;;;20.92;17.83;;;18.90;99.90;;;;;;5125203;27;20037;-82
2022/08/16 04:54:03;;;;;;;22.40;18.38;;;18.90;99.90;;;;;;5155321;27;20094;-82
2022/08/16 04:56:47;;;;;;;23.95;19.05;;;18.90;99.90;;;;;;5120015;27;20042;-81
2022/08/16 04:59:31;;;;;;;20.23;18.13;;;18.90;99.90;;;;;;5104846;27;20737;-81
2022/08/16 05:02:16;;;;;;;22.27;19.73;;;18.90;99.90;;;;;;5136058;27;20037;-81
2022/08/16 05:05:00;;;;;;;22.15;19.80;;;18.90;99.90;;;;;;5139189;27;20086;-81
2022/08/16 05:07:48;;;;;;;22.98;19.73;;;18.90;99.90;;;;;;5105491;27;20038;-81
2022/08/16 05:10:33;;;;;;;21.30;18.88;;;18.90;99.90;;;;;;5134593;27;20162;-82
2022/08/16 05:13:17;;;;;;;24.30;20.42;;;19.00;99.90;;;;;;5119609;27;20063;-82
2022/08/16 05:16:02;;;;;;;24.90;19.38;;;19.00;99.90;;;;;;5123623;27;20038;-83
2022/08/16 05:18:48;;;;;;;23.45;20.85;;;19.00;99.90;;;;;;5109455;27;20046;-83
2022/08/16 05:21:34;;;;;;;23.02;20.35;;;19.00;99.90;;;;;;5131491;27;20042;-85
2022/08/16 05:24:18;;;;;;;26.50;20.35;;;19.10;99.90;;;;;;5109236;27;20058;-82
2022/08/16 05:27:03;;;;;;;23.67;20.27;;;19.10;99.90;;;;;;5114582;27;20510;-82
2022/08/16 05:29:47;;;;;;;25.33;20.60;;;19.20;99.90;;;;;;5120514;27;20406;-83
2022/08/16 05:32:32;;;;;;;23.58;21.08;;;19.30;99.90;;;;;;5100451;27;20122;-82
2022/08/16 05:35:17;;;;;;;24.30;20.20;;;19.30;99.90;;;;;;5132874;27;20133;-82
2022/08/16 05:38:01;;;;;;;21.77;19.48;;;19.30;99.90;;;;;;5132645;27;20026;-82
2022/08/16 05:40:45;;;;;;;22.83;19.40;;;19.40;99.90;;;;;;5132127;27;20129;-82
2022/08/16 05:43:29;;;;;;;23.08;20.45;;;19.40;99.90;;;;;;5132570;27;20453;-87
2022/08/16 05:46:18;;;;;;;21.40;19.13;;;19.50;99.90;;;;;;5099615;27;20116;-83
2022/08/16 05:49:02;;;;;;;21.70;18.30;;;19.60;99.90;;;;;;5132734;27;20038;-82
2022/08/16 05:51:47;;;;;;;22.55;19.60;;;19.60;99.90;;;;;;5133251;27;20458;-82
2022/08/16 05:54:31;;;;;;;23.38;19.17;;;19.70;99.90;;;;;;5117402;27;20046;-86
2022/08/16 05:57:17;;;;;;;23.77;19.33;;;19.80;99.90;;;;;;5118509;27;20042;-81
2022/08/16 06:00:06;;;;;;;21.80;17.92;;;19.90;99.90;;;;;;5134153;27;20042;-81
2022/08/16 06:02:50;;;;;;;20.67;18.25;;;20.00;99.90;;;;;;5130672;27;20064;-82
2022/08/16 06:05:35;;;;;;;25.23;17.75;;;20.20;99.90;;;;;;5112413;27;20421;-82
2022/08/16 06:08:19;;;;;;;24.67;18.73;;;20.30;99.90;;;;;;5112980;27;20043;-81
2022/08/16 06:11:03;;;;;;;20.15;16.67;;;20.40;99.90;;;;;;5128995;27;20092;-81
2022/08/16 06:13:47;;;;;;;21.13;16.88;;;20.60;99.90;;;;;;5112818;27;20038;-83
2022/08/16 06:16:32;;;;;;;17.95;16.10;;;20.70;99.90;;;;;;5130683;27;20034;-82
2022/08/16 06:19:16;;;;;;;20.45;15.45;;;20.80;99.90;;;;;;5097788;27;20387;-82
2022/08/16 06:22:01;;;;;;;18.42;15.35;;;20.90;99.90;;;;;;5127369;27;20444;-83
2022/08/16 06:24:45;;;;;;;18.42;15.90;;;21.00;99.90;;;;;;5127508;27;20096;-82
2022/08/16 06:27:29;;;;;;;21.48;15.80;;;21.10;99.90;;;;;;5104462;28;20035;-81
2022/08/16 06:30:14;;;;;;;17.77;15.27;;;21.20;99.90;;;;;;5130420;27;20038;-82
2022/08/16 06:32:59;;;;;;;17.70;15.15;;;21.30;99.90;;;;;;5113322;27;20041;-81
2022/08/16 06:35:45;;;;;;;17.70;14.85;;;21.30;99.90;;;;;;5117759;27;20170;-81
2022/08/16 06:38:30;;;;;;;16.52;14.50;;;21.30;99.90;;;;;;5103937;27;20448;-81
2022/08/16 06:41:14;;;;;;;17.05;15.27;;;21.30;99.90;;;;;;5100029;28;20084;-81
2022/08/16 06:43:58;;;;;;;16.75;15.05;;;21.30;99.90;;;;;;5127973;27;20360;-82
2022/08/16 06:46:42;;;;;;;16.92;15.13;;;21.40;99.90;;;;;;5130604;27;20049;-83
2022/08/16 06:49:26;;;;;;;17.90;15.05;;;21.50;99.90;;;;;;5131483;27;20084;-83
2022/08/16 06:52:10;;;;;;;17.77;14.27;;;21.50;99.90;;;;;;5115958;27;20452;-83
2022/08/16 06:54:54;;;;;;;19.60;15.90;;;21.60;99.90;;;;;;5121544;27;20127;-84
2022/08/16 06:57:39;;;;;;;17.05;14.50;;;21.70;99.90;;;;;;5101086;27;20046;-90
2022/08/16 07:00:24;;;;;;;20.95;15.70;;;21.90;99.90;;;;;;5125766;27;20091;-83
2022/08/16 07:03:08;;;;;;;18.25;14.45;;;22.00;99.90;;;;;;5119056;27;20045;-83
2022/08/16 07:05:53;;;;;;;19.17;14.15;;;22.10;99.90;;;;;;5144437;27;20042;-85
2022/08/16 07:08:37;;;;;;;19.33;14.95;;;22.30;99.90;;;;;;5115136;27;20412;-85
2022/08/16 07:11:21;;;;;;;15.32;13.73;;;22.40;99.90;;;;;;5100278;28;20073;-83
2022/08/16 07:14:05;;;;;;;20.08;14.13;;;22.50;99.90;;;;;;5114908;28;20045;-83
2022/08/16 07:16:50;;;;;;;16.02;13.82;;;22.50;99.90;;;;;;5094770;28;20088;-83
2022/08/16 07:19:34;;;;;;;15.25;13.60;;;22.60;99.90;;;;;;5100918;28;20407;-84
2022/08/16 07:22:19;;;;;;;16.00;13.57;;;23.10;99.90;;;;;;5098698;27;20096;-84
2022/08/16 07:25:08;;;;;;;15.95;13.38;;;24.10;99.90;;;;;;5132479;27;20034;-83
2022/08/16 07:27:53;;;;;;;15.68;11.77;;;24.90;99.90;;;;;;5128634;27;20402;-84
2022/08/16 07:30:38;;;;;;;15.60;12.40;;;25.40;99.90;;;;;;5133403;27;20100;-85
2022/08/16 07:33:22;;;;;;;15.13;12.20;;;25.40;99.90;;;;;;5129117;27;20034;-83
2022/08/16 07:36:08;;;;;;;13.18;11.75;;;25.20;99.90;;;;;;5129684;27;20102;-84
2022/08/16 07:38:52;;;;;;;15.77;13.32;;;25.10;99.90;;;;;;5136376;27;20034;-83
2022/08/16 07:41:37;;;;;;;14.52;12.50;;;25.00;99.90;;;;;;5126535;27;20493;-84
2022/08/16 07:44:21;;;;;;;15.52;12.85;;;24.90;99.90;;;;;;5132104;27;20042;-85
2022/08/16 07:47:05;;;;;;;15.15;12.02;;;24.90;99.90;;;;;;5104272;28;20066;-83
2022/08/16 07:49:49;;;;;;;14.70;13.20;;;24.90;99.90;;;;;;5123368;27;20096;-84
2022/08/16 07:52:34;;;;;;;16.02;13.65;;;24.90;99.90;;;;;;5119164;27;20092;-84
2022/08/16 07:55:18;;;;;;;13.45;11.98;;;24.90;99.90;;;;;;5109447;28;20043;-85
2022/08/16 07:58:03;;;;;;;16.75;12.20;;;25.10;99.90;;;;;;5115871;27;20115;-83
2022/08/16 08:00:47;;;;;;;19.23;13.48;;;25.40;99.90;;;;;;5136528;27;20038;-88
2022/08/16 08:03:33;;;;;;;15.73;12.80;;;25.80;99.90;;;;;;5106764;27;20030;-84
2022/08/16 08:06:20;;;;;;;14.55;12.93;;;26.30;99.90;;;;;;5136704;27;20035;-84
2022/08/16 08:09:04;;;;;;;14.07;12.02;;;26.90;99.90;;;;;;5123506;27;20108;-84
2022/08/16 08:11:49;;;;;;;13.80;11.75;;;27.20;99.40;;;;;;5136356;27;20091;-87
2022/08/16 08:14:33;;;;;;;14.00;11.45;;;27.20;99.20;;;;;;5136436;27;20435;-84
2022/08/16 08:17:18;;;;;;;13.50;11.65;;;27.00;98.80;;;;;;5136541;27;20037;-85
2022/08/16 08:20:03;;;;;;;13.02;11.10;;;26.90;98.90;;;;;;5106153;27;20062;-85
2022/08/16 08:22:48;;;;;;;13.27;11.95;;;26.80;99.20;;;;;;5136303;27;20535;-85
2022/08/16 08:25:32;;;;;;;13.25;11.50;;;26.70;98.40;;;;;;5154424;27;20055;-85
2022/08/16 08:28:17;;;;;;;14.25;10.88;;;26.70;98.60;;;;;;5144308;27;20113;-85
2022/08/16 08:31:02;;;;;;;14.18;11.25;;;26.80;98.50;;;;;;5135602;27;20088;-84
2022/08/16 08:33:46;;;;;;;12.10;10.80;;;26.80;98.50;;;;;;5135902;27;20095;-84
2022/08/16 08:36:32;;;;;;;12.48;9.88;;;26.80;97.70;;;;;;5135997;27;20446;-86
2022/08/16 08:39:17;;;;;;;14.48;10.70;;;;;;;;;;5135686;27;20398;-84
2022/08/16 08:42:01;;;;;;;14.60;10.48;;;26.70;98.20;;;;;;5133015;27;20041;-84
2022/08/16 08:44:46;;;;;;;16.45;11.32;;;;;;;;;;5140989;27;20038;-84
2022/08/16 08:47:31;;;;;;;12.73;9.60;;;;;;;;;;5123906;27;20088;-85
2022/08/16 08:50:16;;;;;;;11.43;9.48;;;27.10;97.40;;;;;;5135159;27;20541;-84
2022/08/16 08:53:00;;;;;;;11.38;10.20;;;26.30;96.80;;;;;;5134100;27;20079;-84
2022/08/16 08:55:48;;;;;;;9.80;6.72;;;;;;;;;;5135712;27;20105;-85
2022/08/16 08:58:33;;;;;;;13.25;9.88;;;27.30;95.80;;;;;;5135548;27;20406;-85
2022/08/16 09:01:24;;;;;;;13.20;8.48;;;27.40;95.20;;;;;;5135033;27;20410;-85
2022/08/16 09:04:09;;;;;;;10.15;7.95;;;27.50;94.40;;;;;;5133951;27;20069;-84
2022/08/16 09:06:54;;;;;;;10.35;7.90;;;27.50;95.30;;;;;;5137516;27;20083;-85
2022/08/16 09:09:39;;;;;;;12.13;8.95;;;;;;;;;;5119605;27;20108;-85
2022/08/16 09:12:23;;;;;;;9.80;8.57;;;;;;;;;;5122347;27;20034;-85
2022/08/16 09:15:09;;;;;;;9.32;7.85;;;27.60;94.70;;;;;;5119184;27;20104;-85
2022/08/16 09:17:54;;;;;;;10.38;7.82;;;;;;;;;;5119647;27;20046;-85
2022/08/16 09:20:39;;;;;;;7.97;7.03;;;;;;;;;;5129895;27;20061;-85
2022/08/16 09:23:24;;;;;;;10.45;7.05;;;28.10;92.80;;;;;;5113013;27;20550;-85
2022/08/16 09:26:11;;;;;;;9.45;6.82;;;28.00;92.10;;;;;;5119002;27;20069;-85
2022/08/16 09:28:56;;;;;;;7.00;5.95;;;;;;;;;;5134830;27;20096;-85
2022/08/16 09:31:41;;;;;;;8.45;7.18;;;28.00;90.50;;;;;;5119146;27;20041;-84
2022/08/16 09:34:26;;;;;;;10.18;6.35;;;;;;;;;;5134586;27;20178;-84
2022/08/16 09:37:10;;;;;;;8.00;5.90;;;28.10;90.40;;;;;;5134101;27;20042;-85
2022/08/16 09:39:55;;;;;;;11.35;5.93;;;;;;;;;;5119291;27;20058;-85
2022/08/16 09:42:40;;;;;;;6.63;5.38;;;;;;;;;;5118994;27;20034;-85
2022/08/16 09:45:24;;;;;;;8.27;5.30;;;28.50;89.30;;;;;;5118498;27;20084;-85
2022/08/16 09:48:10;;;;;;;9.30;5.20;;;28.70;90.00;;;;;;5122426;27;20102;-85
2022/08/16 09:50:56;;;;;;;10.20;7.05;;;;;;;;;;5118680;27;20088;-86
2022/08/16 09:53:41;;;;;;;9.82;6.30;;;;;;;;;;5119085;27;20046;-84
2022/08/16 09:56:31;;;;;;;8.60;5.80;;;29.30;90.10;;;;;;5120147;27;20033;-85
2022/08/16 09:59:16;;;;;;;12.02;6.50;;;29.10;89.30;;;;;;5117935;27;20042;-85
2022/08/16 10:02:00;;;;;;;10.45;6.25;;;;;;;;;;5134775;27;20160;-86
2022/08/16 10:04:45;;;;;;;12.73;5.13;;;;;;;;;;5135580;27;20119;-87
2022/08/16 10:07:31;;;;;;;11.20;6.07;;;29.70;83.40;;;;;;5136219;27;20083;-86
2022/08/16 10:10:15;;;;;;;7.45;5.68;;;;;;;;;;5118998;27;20058;-87
2022/08/16 10:13:13;;;;;;;7.07;6.15;;;;;;;;;;5131411;27;20550;-86
2022/08/16 10:15:58;;;;;;;9.23;6.55;;;;;;;;;;5122713;27;20395;-86
2022/08/16 10:18:43;;;;;;;7.60;6.00;;;;;;;;;;5149865;27;20039;-87
2022/08/16 10:21:27;;;;;;;9.30;5.95;;;;;;;;;;5119038;27;20505;-87
2022/08/16 10:24:12;;;;;;;6.72;5.47;;;;;;;;;;5120459;27;20386;-87
2022/08/16 10:26:57;;;;;;;8.88;5.88;;;29.70;81.70;;;;;;5136933;27;20031;-85
2022/08/16 10:29:41;;;;;;;6.85;5.68;;;;;;;;;;5121135;27;20041;-88
2022/08/16 10:32:26;;;;;;;8.25;6.05;;;29.70;80.00;;;;;;5136384;27;20574;-87
2022/08/16 10:35:10;;;;;;;8.20;5.82;;;29.70;80.10;;;;;;5120028;27;20493;-88
2022/08/16 10:37:55;;;;;;;11.18;6.28;;;;;;;;;;5118286;27;20084;-86
2022/08/16 10:40:40;;;;;;;11.80;6.70;;;29.90;79.40;;;;;;5133972;27;20041;-85
2022/08/16 10:43:24;;;;;;;9.52;6.65;;;29.90;79.00;;;;;;5117702;27;20513;-85
2022/08/16 10:46:11;;;;;;;10.02;7.05;;;30.00;78.30;;;;;;5118126;27;20124;-87
2022/08/16 10:48:56;;;;;;;9.77;6.50;;;;;;;;;;5118104;27;20056;-86
2022/08/16 10:51:41;;;;;;;7.65;6.75;;;;;;;;;;5133975;27;20042;-85
2022/08/16 10:54:26;;;;;;;11.40;6.53;;;;;;;;;;5103416;27;20505;-87
2022/08/16 10:57:10;;;;;;;13.60;6.75;;;;;;;;;;5132895;27;20091;-88
2022/08/16 10:59:55;;;;;;;10.82;6.63;;;;;;;;;;5133271;27;20139;-87
2022/08/16 11:02:41;;;;;;;10.35;5.78;;;30.20;76.10;;;;;;5133483;27;20088;-86
2022/08/16 11:05:26;;;;;;;7.57;6.05;;;;;;;;;;5132532;27;20042;-87
2022/08/16 11:08:10;;;;;;;14.02;7.45;;;30.30;77.00;;;;;;5132940;27;20034;-86
2022/08/16 11:10:55;;;;;;;10.73;6.40;;;;;;;;;;5133328;27;20520;-86
2022/08/16 11:13:41;;;;;;;9.10;6.63;;;30.50;74.50;;;;;;5117341;27;20175;-86
2022/08/16 11:16:27;;;;;;;9.98;6.18;;;;;;;;;;5132570;27;20065;-85
2022/08/16 11:19:11;;;;;;;10.38;6.30;;;;;;;;;;5117628;28;20097;-86
2022/08/16 11:21:56;;;;;;;7.05;5.55;;;;;;;;;;5133099;27;20095;-87
2022/08/16 11:24:41;;;;;;;6.55;5.88;;;;;;;;;;5132975;27;20080;-87
2022/08/16 11:27:26;;;;;;;8.52;4.80;;;;;;;;;;5116736;27;20034;-88
2022/08/16 11:30:14;;;;;;;7.03;5.13;;;30.70;75.40;;;;;;5117336;28;20043;-87
2022/08/16 11:33:00;;;;;;;9.75;5.78;;;30.80;75.30;;;;;;5105765;28;20038;-86
2022/08/16 11:35:45;;;;;;;8.48;5.07;;;31.10;73.40;;;;;;5132789;27;20065;-87
2022/08/16 11:38:29;;;;;;;7.65;5.20;;;31.20;72.50;;;;;;5132385;27;20042;-87
2022/08/16 11:41:13;;;;;;;10.27;5.28;;;31.40;72.10;;;;;;5132770;27;20107;-86
2022/08/16 11:43:57;;;;;;;7.10;4.63;;;31.20;72.00;;;;;;5132808;27;20038;-86
2022/08/16 11:46:42;;;;;;;6.95;5.03;;;31.30;71.60;;;;;;5132646;27;20039;-87
2022/08/16 11:49:26;;;;;;;10.85;5.22;;;31.50;70.50;;;;;;5132073;27;20391;-86
2022/08/16 11:52:10;;;;;;;11.98;5.88;;;31.60;70.50;;;;;;5102813;28;20103;-85
2022/08/16 11:54:54;;;;;;;6.35;5.05;;;31.10;70.30;;;;;;5132918;27;20034;-86
2022/08/16 11:57:40;;;;;;;7.22;4.95;;;;;;;;;;5116731;28;20118;-86
2022/08/16 12:00:25;;;;;;;7.28;5.10;;;31.20;69.80;;;;;;5132547;27;20038;-85
2022/08/16 12:03:09;;;;;;;11.30;5.63;;;31.00;69.40;;;;;;5117190;27;20046;-87
2022/08/16 12:05:55;;;;;;;8.40;6.40;;;;;;;;;;5103019;28;20156;-87
2022/08/16 12:08:41;;;;;;;10.75;6.45;;;31.10;70.10;;;;;;5131941;27;20042;-86
2022/08/16 12:11:26;;;;;;;8.63;5.68;;;;;;;;;;5132087;27;20595;-86
2022/08/16 12:14:10;;;;;;;7.80;4.97;;;31.30;68.70;;;;;;5120212;27;20114;-86
2022/08/16 12:16:56;;;;;;;12.82;6.72;;;31.50;68.20;;;;;;5103459;27;20033;-86
2022/08/16 12:19:41;;;;;;;6.43;5.55;;;;;;;;;;5135611;27;20041;-86
2022/08/16 12:22:25;;;;;;;12.52;6.07;;;;;;;;;;5120169;27;20054;-87
2022/08/16 12:25:13;;;;;;;6.05;4.80;;;31.70;67.10;;;;;;5135846;27;20034;-86
2022/08/16 12:27:59;;;;;;;6.80;4.75;;;31.70;66.70;;;;;;5120772;27;20034;-87
2022/08/16 12:30:44;;;;;;;5.63;4.72;;;31.80;66.00;;;;;;5135491;27;20085;-86
2022/08/16 12:33:31;;;;;;;6.43;4.43;;;;;;;;;;5119616;27;20513;-87
2022/08/16 12:36:16;;;;;;;6.18;4.90;;;;;;;;;;5136043;27;20446;-86
2022/08/16 12:39:05;;;;;;;7.43;4.50;;;32.10;66.60;;;;;;5136147;27;20080;-87
2022/08/16 12:41:51;;;;;;;8.02;4.88;;;;;;;;;;5119930;27;20112;-86
2022/08/16 12:44:36;;;;;;;7.82;5.07;;;31.90;63.60;;;;;;5135178;27;20035;-86
2022/08/16 12:50:24;;;;;;;;;;;31.90;65.30;;;;;;5135688;27;20502;-88
2022/08/16 12:53:10;;;;;;;6.72;5.20;;;;;;;;;;5135746;27;19959;-89
2022/08/16 12:55:55;;;;;;;6.40;4.43;;;31.90;64.80;;;;;;5135408;27;20050;-87
2022/08/16 12:58:40;;;;;;;9.98;4.15;;;;;;;;;;5135035;27;20551;-87
2022/08/16 13:01:29;;;;;;;7.13;5.07;;;32.00;62.90;;;;;;5129768;27;20100;-88
2022/08/16 13:04:13;;;;;;;6.85;4.68;;;;;;;;;;5135721;27;20038;-86
2022/08/16 13:06:59;;;;;;;9.32;6.90;;;31.00;63.30;;;;;;5135344;27;20502;-88
2022/08/16 13:09:55;;;;;;;7.00;4.28;;;;;;;;;;5134888;27;20553;-88
2022/08/16 13:12:46;;;;;;;7.88;4.43;;;30.10;64.90;;;;;;5108761;27;20034;-88
2022/08/16 13:15:31;;;;;;;6.18;3.78;;;;;;;;;;5134851;27;20030;-87
2022/08/16 13:18:15;;;;;;;5.47;3.83;;;29.80;65.30;;;;;;5135429;27;20034;-87
2022/08/16 13:21:00;;;;;;;7.10;3.70;;;29.60;66.60;;;;;;5119920;27;20050;-87
2022/08/16 13:23:45;;;;;;;10.35;3.75;;;29.80;66.00;;;;;;5134728;27;20461;-87
2022/08/16 13:26:29;;;;;;;7.22;3.90;;;30.40;66.10;;;;;;5134778;27;20046;-87
2022/08/16 13:29:13;;;;;;;6.10;3.53;;;30.40;66.30;;;;;;5119570;27;20061;-87
2022/08/16 13:31:58;;;;;;;5.85;3.28;;;30.70;66.70;;;;;;5119466;27;20398;-88
2022/08/16 13:34:42;;;;;;;6.82;3.80;;;31.00;64.30;;;;;;5119176;27;20041;-87
2022/08/16 13:37:26;;;;;;;5.78;3.38;;;31.20;63.90;;;;;;5119520;27;20034;-85
2022/08/16 13:40:11;;;;;;;5.78;3.42;;;31.40;64.00;;;;;;5134862;27;20065;-88
2022/08/16 13:42:55;;;;;;;5.40;3.50;;;31.60;62.60;;;;;;5135468;27;20149;-85
2022/08/16 13:45:40;;;;;;;6.18;3.25;;;31.60;62.70;;;;;;5134340;27;20038;-86
2022/08/16 13:48:24;;;;;;;7.38;4.28;;;31.80;64.50;;;;;;5134830;27;20092;-87
2022/08/16 13:51:08;;;;;;;9.00;3.45;;;31.80;63.10;;;;;;5119073;27;20430;-86
2022/08/16 13:53:55;;;;;;;5.55;3.72;;;31.70;62.50;;;;;;5134418;27;20107;-86
2022/08/16 13:56:40;;;;;;;7.40;3.90;;;31.60;62.00;;;;;;5134194;27;20030;-87
2022/08/16 13:59:24;;;;;;;6.75;3.75;;;31.60;62.80;;;;;;5134624;27;20490;-85
2022/08/16 14:02:10;;;;;;;5.45;3.83;;;31.50;63.50;;;;;;5121121;27;20038;-87
2022/08/16 14:04:54;;;;;;;9.20;4.55;;;31.50;61.80;;;;;;5134070;27;20091;-88
2022/08/16 14:07:39;;;;;;;9.40;3.90;;;31.30;62.70;;;;;;5104329;27;20403;-88
2022/08/16 14:10:23;;;;;;;5.57;3.58;;;31.10;63.70;;;;;;5134057;27;20049;-88
2022/08/16 14:13:07;;;;;;;11.25;5.25;;;31.00;65.60;;;;;;5118885;27;20039;-87
2022/08/16 14:15:52;;;;;;;7.78;4.20;;;30.90;64.40;;;;;;5104557;27;20115;-86
2022/08/16 14:18:36;;;;;;;7.40;5.03;;;30.60;64.30;;;;;;5133780;27;20046;-88
2022/08/16 14:21:21;;;;;;;6.97;4.60;;;30.30;65.50;;;;;;5134223;27;20050;-86
2022/08/16 14:24:05;;;;;;;6.38;4.65;;;30.00;66.40;;;;;;5133675;27;20042;-86
2022/08/16 14:26:50;;;;;;;10.85;5.00;;;29.80;66.70;;;;;;5133111;27;20554;-83